Time;durP1;ratioP1;P1;durP2;ratioP2;P2;SDS_P1;SDS_P2;PMS_P1;PMS_P2;Temp;Humidity;BMP_temperature;BMP_pressure;BME280_temperature;BME280_humidity;BME280_pressure;Samples;Min_cycle;Max_cycle;Signal;HPM_P1;HPM_P2
2022/07/19 00:00:05;;;;;;;683.47;406.77;;;19.20;99.90;;;;;;5072902;28;20185;-85
2022/07/19 00:02:32;;;;;;;685.20;404.40;;;19.10;99.90;;;;;;5073184;28;20231;-86
2022/07/19 00:04:59;;;;;;;682.37;400.40;;;19.10;99.90;;;;;;5072277;28;20185;-87
2022/07/19 00:07:26;;;;;;;689.20;404.50;;;19.10;99.90;;;;;;5072792;28;20746;-85
2022/07/19 00:09:53;;;;;;;686.70;409.67;;;19.00;99.90;;;;;;5073099;28;20196;-85
2022/07/19 00:12:20;;;;;;;681.97;404.47;;;19.00;1.00;;;;;;5072757;28;20610;-85
2022/07/19 00:14:49;;;;;;;680.73;402.17;;;19.00;1.00;;;;;;5072364;28;20196;-86
2022/07/19 00:17:16;;;;;;;680.83;398.50;;;18.90;1.00;;;;;;5073073;28;20192;-86
2022/07/19 00:19:43;;;;;;;687.00;404.43;;;18.90;1.00;;;;;;5072627;28;20532;-84
2022/07/19 00:22:10;;;;;;;680.80;388.67;;;18.80;1.00;;;;;;5059275;28;20196;-88
2022/07/19 00:24:37;;;;;;;687.43;398.13;;;18.80;1.00;;;;;;5072511;28;20553;-87
2022/07/19 00:27:04;;;;;;;691.63;399.63;;;18.80;1.00;;;;;;5072546;28;20239;-86
2022/07/19 00:29:32;;;;;;;692.17;399.20;;;18.70;1.00;;;;;;5072480;28;20246;-88
2022/07/19 00:32:00;;;;;;;691.03;403.03;;;18.70;1.00;;;;;;5072503;28;20196;-89
2022/07/19 00:34:27;;;;;;;690.43;397.57;;;18.60;1.00;;;;;;5071908;28;20595;-86
2022/07/19 00:36:54;;;;;;;687.73;392.63;;;18.60;1.00;;;;;;5072827;28;20228;-86
2022/07/19 00:39:21;;;;;;;692.10;408.13;;;18.60;1.00;;;;;;5072205;28;20200;-85
2022/07/19 00:41:48;;;;;;;692.20;400.10;;;18.60;1.00;;;;;;5072778;28;20188;-86
2022/07/19 00:44:15;;;;;;;686.40;391.33;;;18.60;1.00;;;;;;5072173;28;20223;-85
2022/07/19 00:46:42;;;;;;;680.07;384.80;;;18.60;1.00;;;;;;5072605;28;20219;-86
2022/07/19 00:49:11;;;;;;;688.57;396.60;;;18.60;1.00;;;;;;5072706;28;20200;-85
2022/07/19 00:51:41;;;;;;;690.47;396.30;;;18.50;1.00;;;;;;5072386;28;20200;-87
2022/07/19 00:54:12;;;;;;;688.47;392.13;;;18.40;1.00;;;;;;5072413;28;20220;-87
2022/07/19 00:56:40;;;;;;;688.20;392.47;;;18.40;1.00;;;;;;5072215;28;20218;-84
2022/07/19 00:59:08;;;;;;;687.87;395.10;;;18.30;1.00;;;;;;5072553;28;20234;-86
2022/07/19 01:01:35;;;;;;;;;;;18.20;1.00;;;;;;5072920;28;20088;-85
2022/07/19 01:04:02;;;;;;;;;;;18.10;1.00;;;;;;5072203;28;19920;-86
2022/07/19 01:06:30;;;;;;;;;;;18.00;1.00;;;;;;5072168;28;20382;-85
2022/07/19 01:08:57;;;;;;;;;;;18.00;1.00;;;;;;5072678;28;19928;-85
2022/07/19 01:11:24;;;;;;;;;;;17.90;1.00;;;;;;5071943;28;19927;-85
2022/07/19 01:13:51;;;;;;;678.40;370.70;;;17.80;1.00;;;;;;5072182;28;20104;-86
2022/07/19 01:16:19;;;;;;;676.77;370.87;;;17.80;1.00;;;;;;5072153;28;20195;-86
2022/07/19 01:18:45;;;;;;;;;;;17.80;1.00;;;;;;5072390;28;20283;-87
2022/07/19 01:21:22;;;;;;;;;;;17.80;1.00;;;;;;5072347;28;19924;-85
2022/07/19 01:23:49;;;;;;;;;;;17.80;1.00;;;;;;5072347;28;19920;-87
2022/07/19 01:26:16;;;;;;;;;;;17.80;1.00;;;;;;5072130;28;19987;-84
2022/07/19 01:28:42;;;;;;;;;;;17.90;1.00;;;;;;5072453;28;19963;-86
2022/07/19 01:31:09;;;;;;;;;;;17.90;1.00;;;;;;5072147;28;19920;-86
2022/07/19 01:33:40;;;;;;;;;;;18.00;1.00;;;;;;5072609;28;19920;-85
2022/07/19 01:36:08;;;;;;;;;;;18.00;1.00;;;;;;5072557;28;19959;-86
2022/07/19 01:38:36;;;;;;;;;;;18.00;1.00;;;;;;5072532;28;19959;-86
2022/07/19 01:41:03;;;;;;;;;;;18.00;1.00;;;;;;5071662;28;20325;-85
2022/07/19 01:43:30;;;;;;;;;;;18.00;1.00;;;;;;5072375;28;19920;-88
2022/07/19 01:45:57;;;;;;;;;;;18.00;1.00;;;;;;5071971;28;19920;-86
2022/07/19 01:48:24;;;;;;;;;;;18.00;1.00;;;;;;5075911;28;19920;-85
2022/07/19 01:50:51;;;;;;;;;;;17.90;1.00;;;;;;5076239;28;19928;-85
2022/07/19 01:53:18;;;;;;;;;;;17.90;1.00;;;;;;5076049;28;19981;-87
2022/07/19 01:55:46;;;;;;;;;;;17.90;1.00;;;;;;5075916;28;19928;-85
2022/07/19 01:58:13;;;;;;;;;;;17.90;99.90;;;;;;5075908;28;19920;-85
2022/07/19 02:00:39;;;;;;;;;;;17.90;99.90;;;;;;5076485;28;19943;-85
2022/07/19 02:03:06;;;;;;;;;;;17.90;99.90;;;;;;5075994;28;19960;-86
2022/07/19 02:05:33;;;;;;;;;;;17.90;99.90;;;;;;5075833;28;19920;-86
2022/07/19 02:08:01;;;;;;;;;;;17.90;99.90;;;;;;5075853;28;19927;-85
2022/07/19 02:10:28;;;;;;;;;;;17.80;99.90;;;;;;5076053;28;20401;-85
2022/07/19 02:12:56;;;;;;;;;;;17.80;99.90;;;;;;5075338;28;19951;-86
2022/07/19 02:15:23;;;;;;;;;;;17.80;99.90;;;;;;5075498;28;20277;-86
2022/07/19 02:17:50;;;;;;;;;;;17.80;99.90;;;;;;5076020;28;19920;-85
2022/07/19 02:20:16;;;;;;;;;;;17.70;99.90;;;;;;5075179;28;19975;-86
2022/07/19 02:22:44;;;;;;;676.23;363.50;;;17.70;99.90;;;;;;5075464;28;20375;-86
2022/07/19 02:25:11;;;;;;;674.47;355.93;;;17.70;99.90;;;;;;5062561;28;20201;-85
2022/07/19 02:27:38;;;;;;;678.00;358.97;;;17.70;99.90;;;;;;5073940;28;20227;-86
2022/07/19 02:30:08;;;;;;;675.57;357.77;;;17.70;99.90;;;;;;5074577;28;20205;-87
2022/07/19 02:32:35;;;;;;;674.07;351.40;;;17.60;99.90;;;;;;5074792;28;20197;-85
2022/07/19 02:35:02;;;;;;;673.43;357.13;;;17.60;99.90;;;;;;5074942;28;20235;-88
2022/07/19 02:37:29;;;;;;;671.97;348.90;;;17.60;99.90;;;;;;5074629;28;20657;-86
2022/07/19 02:39:56;;;;;;;673.13;356.57;;;17.60;99.90;;;;;;5060484;28;20193;-86
2022/07/19 02:42:23;;;;;;;676.40;354.60;;;17.60;99.90;;;;;;5054916;28;20204;-86
2022/07/19 02:44:50;;;;;;;674.53;353.33;;;17.50;99.90;;;;;;5060857;28;20210;-85
2022/07/19 02:47:19;;;;;;;673.37;351.30;;;17.60;99.90;;;;;;5073050;28;20573;-85
2022/07/19 02:49:46;;;;;;;672.87;345.67;;;17.50;99.90;;;;;;5069814;28;20200;-86
2022/07/19 02:52:13;;;;;;;676.57;355.93;;;17.50;99.90;;;;;;5074882;28;20194;-85
2022/07/19 02:54:40;;;;;;;673.17;350.90;;;17.50;99.90;;;;;;5075072;28;20254;-86
2022/07/19 02:57:07;;;;;;;677.10;355.43;;;17.40;99.90;;;;;;5068435;28;20191;-85
2022/07/19 02:59:34;;;;;;;672.57;350.40;;;17.40;99.90;;;;;;5074572;28;20655;-87
2022/07/19 03:02:14;;;;;;;672.23;347.87;;;17.30;99.90;;;;;;5076751;28;20198;-89
2022/07/19 03:04:56;;;;;;;679.70;359.57;;;17.40;1.00;;;;;;5090403;28;20253;-88
2022/07/19 03:07:23;;;;;;;673.30;351.73;;;17.30;1.00;;;;;;5080414;28;20264;-87
2022/07/19 03:09:50;;;;;;;671.83;348.63;;;17.30;99.90;;;;;;5067937;28;20191;-86
2022/07/19 03:12:20;;;;;;;670.90;344.30;;;17.30;99.90;;;;;;5081530;28;20544;-91
2022/07/19 03:14:48;;;;;;;665.57;338.00;;;17.30;1.00;;;;;;5062427;28;20204;-89
2022/07/19 03:17:24;;;;;;;667.93;337.60;;;17.30;1.00;;;;;;5078060;28;20195;-92
2022/07/19 03:20:11;;;;;;;668.37;344.57;;;17.30;1.00;;;;;;5090674;28;20199;-88
2022/07/19 03:22:44;;;;;;;668.07;330.57;;;17.30;1.00;;;;;;5090794;28;20207;-90
2022/07/19 03:25:14;;;;;;;663.13;337.13;;;17.30;1.00;;;;;;5096499;28;20204;-87
2022/07/19 03:27:55;;;;;;;666.67;342.00;;;17.30;1.00;;;;;;5096491;28;20269;-91
2022/07/19 03:30:23;;;;;;;668.73;338.63;;;17.30;1.00;;;;;;5087969;28;20244;-88
2022/07/19 03:39:26;;;;;;;666.17;338.17;;;17.50;1.00;;;;;;5097186;28;20174;-92
2022/07/19 03:41:53;;;;;;;662.60;335.63;;;17.60;1.00;;;;;;5076762;28;20206;-87
2022/07/19 03:44:22;;;;;;;666.07;334.47;;;17.60;1.00;;;;;;5081923;28;20562;-86
2022/07/19 03:46:49;;;;;;;669.20;348.60;;;17.60;1.00;;;;;;5085353;28;20600;-86
2022/07/19 03:49:16;;;;;;;671.83;355.50;;;17.70;1.00;;;;;;5069239;28;20224;-86
2022/07/19 03:51:43;;;;;;;671.17;352.73;;;17.80;1.00;;;;;;5082247;28;20196;-86
2022/07/19 03:57:46;;;;;;;674.63;358.97;;;18.00;1.00;;;;;;5077665;28;20199;-91
2022/07/19 04:00:13;;;;;;;675.47;372.37;;;18.60;1.00;;;;;;5071170;28;20231;-88
2022/07/19 04:02:40;;;;;;;684.57;385.87;;;19.50;1.00;;;;;;5085863;28;20203;-88
2022/07/19 04:05:08;;;;;;;682.47;393.47;;;20.30;1.00;;;;;;5083779;28;20682;-89
2022/07/19 04:07:36;;;;;;;;;;;21.20;1.00;;;;;;5078850;28;20188;-89
2022/07/19 04:10:03;;;;;;;;;;;22.10;1.00;;;;;;5072572;28;19978;-88
2022/07/19 04:12:33;;;;;;;;;;;23.00;99.90;;;;;;5081352;28;19931;-89
2022/07/19 04:15:18;;;;;;;;;;;23.80;99.90;;;;;;5078609;28;19931;-89
2022/07/19 04:17:45;;;;;;;725.20;550.13;;;24.50;99.90;;;;;;5074016;28;20055;-87
2022/07/19 04:20:13;;;;;;;730.43;571.63;;;25.40;99.90;;;;;;5069950;28;20201;-87
2022/07/19 04:22:40;;;;;;;734.50;607.10;;;26.10;99.90;;;;;;5069233;28;20308;-87
2022/07/19 04:28:13;;;;;;;;;;;27.40;99.90;;;;;;5061696;28;20217;-89
2022/07/19 04:30:41;;;;;;;773.67;690.25;;;28.20;99.90;;;;;;5079375;28;20407;-92
2022/07/19 04:33:08;;;;;;;802.70;718.55;;;28.80;99.90;;;;;;5082936;28;20208;-90
2022/07/19 04:35:35;;;;;;;826.70;741.90;;;29.50;99.90;;;;;;5077093;28;20227;-93
2022/07/19 04:38:17;;;;;;;839.13;753.78;;;29.90;99.90;;;;;;5073092;28;20208;-93
2022/07/19 04:47:24;;;;;;;896.92;810.45;;;31.20;99.90;;;;;;5056172;28;20477;-92
2022/07/19 04:49:50;;;;;;;;;;;31.60;99.90;;;;;;5083835;28;20200;-88
2022/07/19 04:52:26;;;;;;;920.42;833.00;;;31.80;99.90;;;;;;5077555;28;20047;-94
2022/07/19 04:54:53;;;;;;;932.47;845.25;;;32.20;99.90;;;;;;5083549;28;20609;-92
2022/07/19 04:57:23;;;;;;;937.08;849.55;;;32.50;99.90;;;;;;5086363;28;20590;-91
2022/07/19 04:59:57;;;;;;;937.67;850.00;;;32.80;99.90;;;;;;5084630;28;20295;-91
2022/07/19 05:02:43;;;;;;;960.45;871.90;;;33.10;99.90;;;;;;5083030;28;20196;-91
2022/07/19 05:05:13;;;;;;;954.45;866.17;;;33.30;99.90;;;;;;5080182;28;20249;-92
2022/07/19 05:07:47;;;;;;;970.83;882.35;;;33.50;99.90;;;;;;5083470;28;20196;-92
2022/07/19 05:10:15;;;;;;;976.33;886.85;;;33.60;99.90;;;;;;5083813;28;20176;-95
2022/07/19 05:12:43;;;;;;;988.35;898.65;;;33.80;99.90;;;;;;5082316;28;20589;-89
2022/07/19 05:15:20;;;;;;;;;;;34.00;99.90;;;;;;5082879;28;20665;-92
2022/07/19 05:17:49;;;;;;;994.67;904.67;;;34.20;99.90;;;;;;5082010;28;20383;-88
2022/07/19 05:20:16;;;;;;;1006.03;916.05;;;34.40;99.90;;;;;;5085727;28;20167;-88
2022/07/19 05:22:44;;;;;;;1020.70;930.28;;;34.80;99.90;;;;;;5080613;28;20188;-90
2022/07/19 05:25:12;;;;;;;1016.58;926.35;;;35.20;99.90;;;;;;5085695;28;20211;-93
2022/07/19 05:27:40;;;;;;;1025.78;935.42;;;35.50;99.90;;;;;;5081542;28;20191;-90
2022/07/19 05:30:19;;;;;;;1037.95;946.83;;;35.80;99.90;;;;;;5073516;28;20642;-91
2022/07/19 05:32:48;;;;;;;1057.88;965.58;;;36.20;99.90;;;;;;5077445;28;20199;-90
2022/07/19 05:35:23;;;;;;;1058.13;966.65;;;36.70;99.90;;;;;;5081129;28;20238;-90
2022/07/19 05:37:50;;;;;;;1050.50;959.28;;;37.00;99.90;;;;;;5080570;28;20198;-89
2022/07/19 05:40:18;;;;;;;1060.57;969.13;;;37.20;99.90;;;;;;5078323;28;20196;-91
2022/07/19 05:42:45;;;;;;;1066.95;975.45;;;37.20;99.90;;;;;;5083260;28;20200;-87
2022/07/19 05:45:12;;;;;;;1072.47;980.28;;;37.30;99.90;;;;;;5083940;28;20183;-91
2022/07/19 05:47:51;;;;;;;1065.32;973.60;;;37.30;99.90;;;;;;5087522;28;20190;-92
2022/07/19 05:50:24;;;;;;;1076.30;984.13;;;37.50;99.90;;;;;;5078407;28;20214;-91
2022/07/19 05:53:03;;;;;;;1073.43;981.58;;;37.70;99.90;;;;;;5079420;28;20184;-90
2022/07/19 05:55:30;;;;;;;1076.28;984.25;;;38.00;99.90;;;;;;5087034;28;20207;-91
2022/07/19 05:58:17;;;;;;;1081.65;989.47;;;38.30;99.90;;;;;;5082478;28;20176;-93
2022/07/19 06:03:40;;;;;;;1094.00;997.08;;;38.50;99.90;;;;;;5079227;28;20219;-88
2022/07/19 06:06:08;;;;;;;1097.28;998.50;;;38.80;99.90;;;;;;5079685;28;20192;-89
2022/07/19 06:08:35;;;;;;;1111.22;999.90;;;39.00;99.90;;;;;;5079945;28;20199;-89
2022/07/19 06:11:20;;;;;;;1113.80;999.90;;;39.30;99.90;;;;;;5088166;28;20180;-93
2022/07/19 06:13:48;;;;;;;1112.57;999.90;;;39.50;99.90;;;;;;5082801;28;20207;-91
2022/07/19 06:16:24;;;;;;;1115.32;999.90;;;39.60;99.90;;;;;;5087405;28;20200;-91
2022/07/19 06:19:02;;;;;;;1121.38;999.90;;;39.70;99.90;;;;;;5082863;28;20200;-90
2022/07/19 06:21:29;;;;;;;1127.93;999.90;;;39.80;99.90;;;;;;5075870;28;20183;-87
2022/07/19 06:23:56;;;;;;;1129.53;999.90;;;40.10;99.90;;;;;;5088811;28;20192;-88
2022/07/19 06:26:36;;;;;;;1133.47;999.90;;;40.30;99.90;;;;;;5087822;28;20259;-91
2022/07/19 06:29:04;;;;;;;1136.05;999.90;;;40.60;99.90;;;;;;5070379;28;20276;-89
2022/07/19 06:31:45;;;;;;;1140.90;999.90;;;40.90;99.90;;;;;;5077130;28;20259;-92
2022/07/19 06:34:14;;;;;;;1135.95;999.90;;;41.20;99.90;;;;;;5086727;28;20257;-89
2022/07/19 06:36:41;;;;;;;1147.55;999.90;;;41.40;99.90;;;;;;5083731;28;20050;-88
2022/07/19 06:39:08;;;;;;;1144.85;999.90;;;41.60;99.90;;;;;;5091364;28;20224;-93
2022/07/19 06:41:35;;;;;;;1165.38;999.90;;;41.70;99.90;;;;;;5084178;28;20203;-88
2022/07/19 06:44:02;;;;;;;1145.18;999.90;;;41.60;99.90;;;;;;5090639;28;20219;-88
2022/07/19 06:46:42;;;;;;;1135.68;999.90;;;41.60;99.90;;;;;;5079574;28;20222;-91
2022/07/19 06:52:43;;;;;;;1139.07;999.90;;;41.80;99.90;;;;;;5082898;28;20184;-89
2022/07/19 06:55:10;;;;;;;1140.85;999.90;;;42.00;99.90;;;;;;5078955;28;20198;-88
2022/07/19 06:57:39;;;;;;;1153.88;999.90;;;42.20;99.90;;;;;;5077001;28;20216;-91
2022/07/19 07:00:09;;;;;;;1159.53;999.90;;;42.60;99.90;;;;;;5079314;28;20269;-90
2022/07/19 07:02:46;;;;;;;1162.45;999.90;;;43.00;99.90;;;;;;5088111;28;20200;-93
2022/07/19 07:05:14;;;;;;;1169.38;999.90;;;43.20;99.90;;;;;;5081623;28;20195;-88
2022/07/19 07:10:35;;;;;;;;;;;43.60;99.90;;;;;;5084153;28;20198;-90
2022/07/19 07:13:05;;;;;;;1169.40;999.90;;;43.70;99.90;;;;;;5093542;28;20071;-91
2022/07/19 07:15:33;;;;;;;1172.97;999.90;;;44.00;99.90;;;;;;5084907;28;20200;-89
2022/07/19 07:18:00;;;;;;;1179.88;999.90;;;44.00;99.90;;;;;;5073916;28;20195;-91
2022/07/19 07:20:28;;;;;;;1177.03;999.90;;;44.10;99.90;;;;;;5077213;28;20216;-90
2022/07/19 07:22:58;;;;;;;1179.38;999.90;;;44.10;99.90;;;;;;5096538;28;20196;-93
2022/07/19 07:25:53;;;;;;;1177.43;999.90;;;44.10;99.90;;;;;;5074683;28;20200;-91
2022/07/19 07:31:27;;;;;;;1182.25;999.90;;;44.50;99.90;;;;;;5088642;28;20183;-93
2022/07/19 07:34:04;;;;;;;1178.85;999.90;;;44.60;99.90;;;;;;5093647;28;20196;-93
2022/07/19 07:36:49;;;;;;;1174.13;999.90;;;44.70;99.90;;;;;;5097751;28;20245;-96
2022/07/19 07:39:38;;;;;;;1173.80;999.90;;;44.70;99.90;;;;;;5087384;28;20176;-91
2022/07/19 07:42:08;;;;;;;1166.28;999.90;;;44.80;99.90;;;;;;5078956;28;20734;-90
2022/07/19 07:44:35;;;;;;;1167.85;999.90;;;44.80;99.90;;;;;;5087068;28;20195;-88
2022/07/19 07:47:18;;;;;;;1178.45;999.90;;;45.00;99.90;;;;;;5092023;28;20174;-90
2022/07/19 07:49:55;;;;;;;1176.13;999.90;;;45.00;99.90;;;;;;5079882;28;20204;-93
2022/07/19 07:52:34;;;;;;;1194.25;999.90;;;45.20;99.90;;;;;;5074646;28;20279;-93
2022/07/19 07:55:01;;;;;;;1192.45;999.90;;;45.60;99.90;;;;;;5082965;28;20538;-92
2022/07/19 07:57:32;;;;;;;1182.60;999.90;;;45.90;99.90;;;;;;5083913;28;20216;-92
2022/07/19 07:59:59;;;;;;;1195.28;999.90;;;46.10;99.90;;;;;;5087584;28;20218;-91
2022/07/19 08:02:26;;;;;;;1200.72;999.90;;;46.30;99.90;;;;;;5089375;28;20215;-88
2022/07/19 08:05:00;;;;;;;1198.10;999.90;;;46.40;99.90;;;;;;5090447;28;20204;-91
2022/07/19 08:07:49;;;;;;;1195.07;999.90;;;46.30;99.90;;;;;;5093394;28;20221;-94
2022/07/19 08:10:36;;;;;;;1194.28;999.90;;;46.20;99.90;;;;;;5091153;28;20215;-93
2022/07/19 08:13:30;;;;;;;1190.78;999.90;;;46.30;99.90;;;;;;5083041;28;20196;-92
2022/07/19 08:16:09;;;;;;;1207.18;999.90;;;46.50;99.90;;;;;;5097269;28;20171;-92
2022/07/19 08:18:46;;;;;;;1204.57;999.90;;;46.80;99.90;;;;;;5083225;28;20267;-95
2022/07/19 08:21:27;;;;;;;1204.22;999.90;;;47.00;99.90;;;;;;5096917;28;20295;-93
2022/07/19 08:24:19;;;;;;;1201.50;999.90;;;47.10;99.90;;;;;;5090215;28;20206;-91
2022/07/19 08:26:46;;;;;;;1201.55;999.90;;;47.30;99.90;;;;;;5094896;28;20194;-89
2022/07/19 08:29:13;;;;;;;1208.85;999.90;;;47.20;99.90;;;;;;5085826;28;20215;-87
2022/07/19 08:31:57;;;;;;;1198.75;999.90;;;47.00;99.90;;;;;;5077149;28;20180;-94
2022/07/19 08:34:24;;;;;;;1205.53;999.90;;;46.90;99.90;;;;;;5065369;28;20215;-89
2022/07/19 08:36:51;;;;;;;1206.13;999.90;;;46.80;99.90;;;;;;5069829;28;20224;-88
2022/07/19 08:39:20;;;;;;;1218.93;999.90;;;46.70;99.90;;;;;;5072529;28;20255;-89
2022/07/19 08:41:47;;;;;;;1216.65;999.90;;;46.80;99.90;;;;;;5083185;28;20196;-90
2022/07/19 08:44:18;;;;;;;1213.10;999.90;;;46.80;99.90;;;;;;5090086;28;20195;-89
2022/07/19 08:46:56;;;;;;;1216.82;999.90;;;46.90;99.90;;;;;;5086463;28;20188;-93
2022/07/19 08:49:31;;;;;;;1221.78;999.90;;;47.10;99.90;;;;;;5068100;28;20203;-89
2022/07/19 08:51:58;;;;;;;1221.32;999.90;;;47.00;99.90;;;;;;5072152;28;20633;-89
2022/07/19 08:54:27;;;;;;;1226.82;999.90;;;47.10;99.90;;;;;;5072077;28;20192;-88
2022/07/19 08:59:38;;;;;;;1222.60;999.90;;;47.30;99.90;;;;;;5074235;28;20269;-89
2022/07/19 09:05:25;;;;;;;1229.60;999.90;;;47.30;99.90;;;;;;5082764;28;20191;-92
2022/07/19 09:08:07;;;;;;;1224.88;999.90;;;47.30;99.90;;;;;;5081847;28;20192;-92
2022/07/19 09:10:37;;;;;;;1227.55;999.90;;;47.20;99.90;;;;;;5076364;28;20215;-88
2022/07/19 09:13:08;;;;;;;1223.82;999.90;;;47.00;99.90;;;;;;5075316;28;20196;-89
2022/07/19 09:18:37;;;;;;;1227.90;999.90;;;46.70;99.90;;;;;;5074674;28;20206;-92
2022/07/19 09:21:16;;;;;;;1229.75;999.90;;;46.70;99.90;;;;;;5085148;28;20203;-92
2022/07/19 09:23:56;;;;;;;1227.72;999.90;;;46.70;99.90;;;;;;5076265;28;20230;-92
2022/07/19 09:26:38;;;;;;;1227.63;999.90;;;46.30;99.90;;;;;;5096160;28;20267;-91
2022/07/19 09:29:38;;;;;;;1232.82;999.90;;;45.90;99.90;;;;;;5075915;28;20215;-95
2022/07/19 09:35:42;;;;;;;1223.93;999.90;;;45.60;99.90;;;;;;5069610;28;20233;-91
2022/07/19 09:38:18;;;;;;;1221.55;999.90;;;44.90;99.90;;;;;;5095777;28;20110;-93
2022/07/19 09:41:11;;;;;;;1216.95;999.90;;;44.40;99.90;;;;;;5095687;28;20175;-89
2022/07/19 09:44:19;;;;;;;1202.00;999.90;;;43.90;99.90;;;;;;5095157;28;20267;-94
2022/07/19 09:49:35;;;;;;;1179.25;999.90;;;42.60;99.90;;;;;;5010077;28;20235;-88
2022/07/19 09:52:03;;;;;;;1154.13;999.90;;;41.80;99.90;;;;;;5065213;28;20184;-88
2022/07/19 09:54:45;;;;;;;1136.75;999.90;;;41.40;99.90;;;;;;5078390;28;20188;-88
2022/07/19 09:57:14;;;;;;;1127.20;999.90;;;41.00;99.90;;;;;;5071145;28;20218;-87
2022/07/19 10:00:00;;;;;;;1118.07;999.90;;;40.60;99.90;;;;;;5081630;28;20191;-90
2022/07/19 10:02:34;;;;;;;;;;;40.40;99.90;;;;;;5070327;28;20108;-92
2022/07/19 10:05:03;;;;;;;1095.00;997.78;;;40.00;99.90;;;;;;5083561;28;20190;-88
2022/07/19 10:07:43;;;;;;;1097.18;998.42;;;39.60;99.90;;;;;;5086497;28;20199;-91
2022/07/19 10:10:20;;;;;;;1091.85;996.58;;;39.50;99.90;;;;;;5099677;28;20237;-89
2022/07/19 10:12:54;;;;;;;1076.50;985.20;;;39.20;99.90;;;;;;5090226;28;20268;-90
2022/07/19 10:15:23;;;;;;;1072.32;980.55;;;39.10;99.90;;;;;;5086891;28;20237;-86
2022/07/19 10:18:14;;;;;;;1074.35;983.33;;;38.90;99.90;;;;;;5070458;28;20193;-91
2022/07/19 10:20:47;;;;;;;1058.45;968.28;;;38.90;99.90;;;;;;5073376;28;20224;-86
2022/07/19 10:23:26;;;;;;;1053.00;962.90;;;38.70;99.90;;;;;;5079147;28;20195;-93
2022/07/19 10:25:53;;;;;;;1041.60;952.53;;;38.50;99.90;;;;;;5089210;28;20191;-88
2022/07/19 10:29:09;;;;;;;1042.32;953.25;;;38.30;99.90;;;;;;5095196;28;20195;-89
2022/07/19 10:32:12;;;;;;;1026.85;938.40;;;38.10;99.90;;;;;;5075007;28;20203;-91
2022/07/19 10:34:51;;;;;;;1025.28;937.03;;;38.10;99.90;;;;;;5089520;28;20207;-90
2022/07/19 10:37:53;;;;;;;1025.38;937.08;;;37.90;99.90;;;;;;5079468;28;20220;-90
2022/07/19 10:40:43;;;;;;;1026.28;937.83;;;37.80;99.90;;;;;;5082488;28;20100;-87
2022/07/19 10:43:14;;;;;;;1019.00;930.92;;;37.60;99.90;;;;;;5088498;28;20180;-87
2022/07/19 10:45:43;;;;;;;1016.20;927.92;;;37.40;99.90;;;;;;5080131;28;20205;-85
2022/07/19 10:48:58;;;;;;;1016.08;927.72;;;37.30;99.90;;;;;;5069493;28;20181;-92
2022/07/19 10:51:33;;;;;;;1012.40;924.28;;;37.10;99.90;;;;;;5069489;28;20224;-86
2022/07/19 10:54:17;;;;;;;;;;;;;;;;;;;;;
2022/07/19 10:57:29;;;;;;;990.40;902.95;;;36.60;99.90;;;;;;5074780;28;20208;-86
2022/07/19 10:59:57;;;;;;;999.97;912.17;;;36.50;99.90;;;;;;5074708;28;20203;-87
2022/07/19 11:02:41;;;;;;;1015.58;926.65;;;36.20;99.90;;;;;;5082776;28;20196;-92
2022/07/19 11:05:37;;;;;;;1005.30;917.47;;;36.00;99.90;;;;;;5079516;28;20184;-86
2022/07/19 11:08:04;;;;;;;999.03;911.38;;;35.70;99.90;;;;;;5079691;28;20207;-85
2022/07/19 11:10:31;;;;;;;1001.55;913.42;;;35.70;99.90;;;;;;5091622;28;20216;-85
2022/07/19 11:13:16;;;;;;;1002.45;914.47;;;35.80;99.90;;;;;;5086945;28;20185;-90
2022/07/19 11:16:20;;;;;;;1004.00;916.20;;;35.90;99.90;;;;;;5065998;28;20197;-86
2022/07/19 11:21:45;;;;;;;993.80;906.67;;;36.10;99.90;;;;;;5062148;28;20208;-86
2022/07/19 11:24:24;;;;;;;1011.17;923.22;;;36.10;99.90;;;;;;5081574;28;20187;-91
2022/07/19 11:27:12;;;;;;;996.35;908.85;;;36.10;99.90;;;;;;5081355;28;20209;-91
2022/07/19 11:30:12;;;;;;;983.60;896.58;;;36.20;99.90;;;;;;5084390;28;20222;-89
2022/07/19 11:33:07;;;;;;;994.90;907.47;;;36.30;99.90;;;;;;5085247;28;20260;-91
2022/07/19 11:35:34;;;;;;;987.47;900.45;;;36.30;99.90;;;;;;5088764;28;20195;-87
2022/07/19 11:38:03;;;;;;;999.88;912.47;;;36.20;99.90;;;;;;5085511;28;20792;-90
2022/07/19 11:40:41;;;;;;;996.05;908.95;;;36.00;99.90;;;;;;5087110;28;20591;-88
2022/07/19 11:43:08;;;;;;;996.47;909.28;;;36.00;99.90;;;;;;5079253;28;20172;-86
2022/07/19 11:45:47;;;;;;;997.53;909.45;;;35.90;99.90;;;;;;5078174;28;20243;-91
2022/07/19 11:48:33;;;;;;;1008.20;920.55;;;35.80;99.90;;;;;;5071683;28;20181;-91
2022/07/19 11:51:20;;;;;;;982.13;895.47;;;36.00;99.90;;;;;;5084163;28;20306;-93
2022/07/19 11:53:53;;;;;;;987.17;900.10;;;36.10;99.90;;;;;;5084719;28;20197;-87
2022/07/19 11:56:36;;;;;;;983.08;896.40;;;36.10;99.90;;;;;;5088155;28;20200;-89
2022/07/19 11:59:18;;;;;;;988.17;900.95;;;36.10;99.90;;;;;;5073724;28;20201;-92
2022/07/19 12:01:45;;;;;;;1002.60;915.05;;;36.10;99.90;;;;;;5084402;28;20188;-88
2022/07/19 12:04:19;;;;;;;996.75;909.38;;;36.20;99.90;;;;;;5084749;28;20188;-90
2022/07/19 12:06:56;;;;;;;999.97;912.45;;;36.30;99.90;;;;;;5095217;28;20222;-90
2022/07/19 12:09:33;;;;;;;1004.22;915.92;;;36.40;99.90;;;;;;5068944;28;20227;-90
2022/07/19 12:12:12;;;;;;;1013.25;925.10;;;36.50;99.90;;;;;;5082829;28;20200;-86
2022/07/19 12:14:48;;;;;;;1004.85;916.95;;;36.70;99.90;;;;;;5076555;28;20226;-92
2022/07/19 12:17:26;;;;;;;1002.22;914.65;;;36.80;99.90;;;;;;5086772;28;20188;-89
2022/07/19 12:20:11;;;;;;;1001.72;914.20;;;36.60;99.90;;;;;;5089814;28;20195;-88
2022/07/19 12:22:41;;;;;;;1003.55;916.00;;;36.60;99.90;;;;;;5084928;28;20211;-89
2022/07/19 12:25:15;;;;;;;1009.75;922.03;;;36.40;99.90;;;;;;5078167;28;20654;-91
2022/07/19 12:27:42;;;;;;;1025.85;936.97;;;36.30;99.90;;;;;;5084142;28;20200;-87
2022/07/19 12:30:19;;;;;;;1023.70;935.35;;;36.10;99.90;;;;;;5084466;28;20227;-91
2022/07/19 12:33:08;;;;;;;1011.70;923.42;;;35.70;99.90;;;;;;5085156;28;20182;-90
2022/07/19 12:35:46;;;;;;;992.65;905.72;;;35.40;99.90;;;;;;5075742;28;20192;-87
2022/07/19 12:38:19;;;;;;;994.88;907.40;;;35.20;99.90;;;;;;5095414;28;20196;-90
2022/07/19 12:41:17;;;;;;;997.55;909.75;;;35.00;99.90;;;;;;5096636;28;20207;-92
2022/07/19 12:44:18;;;;;;;979.20;892.45;;;35.00;99.90;;;;;;5087760;28;20219;-91
2022/07/19 12:46:45;;;;;;;970.45;883.78;;;35.20;99.90;;;;;;5077946;28;20199;-86
2022/07/19 12:49:14;;;;;;;985.63;898.45;;;35.40;99.90;;;;;;5077739;28;20176;-88
2022/07/19 12:52:02;;;;;;;976.92;889.85;;;35.40;99.90;;;;;;5090180;28;20212;-91
2022/07/19 12:54:41;;;;;;;971.92;884.90;;;35.30;99.90;;;;;;5093931;28;20630;-90
2022/07/19 12:57:21;;;;;;;981.40;893.67;;;35.20;99.90;;;;;;5076700;28;20212;-87
2022/07/19 13:00:23;;;;;;;988.50;900.65;;;35.00;99.90;;;;;;5071465;28;20564;-91
2022/07/19 13:05:50;;;;;;;965.08;878.28;;;35.00;99.90;;;;;;5008649;28;20187;-91
2022/07/19 13:08:18;;;;;;;960.55;873.95;;;34.90;99.90;;;;;;5075352;28;20188;-91
2022/07/19 13:10:45;;;;;;;981.70;894.15;;;34.80;99.90;;;;;;5085346;28;20195;-86
2022/07/19 13:13:14;;;;;;;970.10;883.35;;;34.70;99.90;;;;;;5091107;28;20188;-90
2022/07/19 13:15:47;;;;;;;965.97;879.15;;;34.60;99.90;;;;;;5073925;28;20196;-90
2022/07/19 13:18:14;;;;;;;966.83;879.95;;;34.40;99.90;;;;;;5081870;28;20100;-86
2022/07/19 13:20:42;;;;;;;957.90;871.22;;;34.20;99.90;;;;;;5086508;28;20203;-89
2022/07/19 13:23:10;;;;;;;967.15;879.70;;;34.00;99.90;;;;;;5088656;28;20212;-87
2022/07/19 13:25:37;;;;;;;953.85;867.08;;;33.90;99.90;;;;;;5084437;28;20211;-86
2022/07/19 13:28:21;;;;;;;955.45;868.50;;;33.80;99.90;;;;;;5081910;28;20187;-91
2022/07/19 13:31:31;;;;;;;946.58;859.88;;;33.70;99.90;;;;;;5068931;28;20185;-91
2022/07/19 13:34:01;;;;;;;942.92;856.00;;;33.50;99.90;;;;;;5053947;28;20204;-91
2022/07/19 13:39:16;;;;;;;943.67;857.05;;;33.50;99.90;;;;;;5076106;28;20224;-87
2022/07/19 13:41:43;;;;;;;932.72;846.47;;;33.60;99.90;;;;;;5095591;28;20187;-87
2022/07/19 13:44:10;;;;;;;931.45;845.45;;;33.60;99.90;;;;;;5091632;28;20196;-86
2022/07/19 13:46:54;;;;;;;943.80;857.33;;;33.60;99.90;;;;;;5087104;28;20188;-91